sensor_id;sensor_type;location;lat;lon;timestamp;P1;durP1;ratioP1;P2;durP2;ratioP2
83695;SDS011;73677;54.530;18.484;2024-03-08T00:00:20;34.33;;;13.88;;
83695;SDS011;73677;54.530;18.484;2024-03-08T00:03:10;36.45;;;15.07;;
83695;SDS011;73677;54.530;18.484;2024-03-08T00:08:08;27.80;;;13.20;;
83695;SDS011;73677;54.530;18.484;2024-03-08T00:10:37;39.97;;;16.00;;
83695;SDS011;73677;54.530;18.484;2024-03-08T00:13:06;44.13;;;18.55;;
83695;SDS011;73677;54.530;18.484;2024-03-08T00:15:34;33.33;;;16.63;;
83695;SDS011;73677;54.530;18.484;2024-03-08T00:18:03;32.70;;;13.07;;
83695;SDS011;73677;54.530;18.484;2024-03-08T00:20:33;34.28;;;15.80;;
83695;SDS011;73677;54.530;18.484;2024-03-08T00:23:02;33.75;;;13.98;;
83695;SDS011;73677;54.530;18.484;2024-03-08T00:25:31;36.92;;;14.32;;
83695;SDS011;73677;54.530;18.484;2024-03-08T00:28:01;38.42;;;16.17;;
83695;SDS011;73677;54.530;18.484;2024-03-08T00:30:31;29.65;;;13.02;;
83695;SDS011;73677;54.530;18.484;2024-03-08T00:33:00;30.63;;;13.93;;
83695;SDS011;73677;54.530;18.484;2024-03-08T00:35:28;37.33;;;15.43;;
83695;SDS011;73677;54.530;18.484;2024-03-08T00:37:58;32.17;;;13.80;;
83695;SDS011;73677;54.530;18.484;2024-03-08T00:40:27;32.78;;;14.73;;
83695;SDS011;73677;54.530;18.484;2024-03-08T00:42:56;31.55;;;14.45;;
83695;SDS011;73677;54.530;18.484;2024-03-08T00:45:24;26.13;;;11.52;;
83695;SDS011;73677;54.530;18.484;2024-03-08T00:47:53;35.60;;;14.25;;
83695;SDS011;73677;54.530;18.484;2024-03-08T00:50:21;33.97;;;14.10;;
83695;SDS011;73677;54.530;18.484;2024-03-08T00:52:50;38.95;;;17.08;;
83695;SDS011;73677;54.530;18.484;2024-03-08T00:55:20;31.65;;;14.90;;
83695;SDS011;73677;54.530;18.484;2024-03-08T01:02:46;29.15;;;13.18;;
83695;SDS011;73677;54.530;18.484;2024-03-08T01:05:15;32.63;;;13.73;;
83695;SDS011;73677;54.530;18.484;2024-03-08T01:07:44;28.35;;;13.15;;
83695;SDS011;73677;54.530;18.484;2024-03-08T01:10:13;33.00;;;13.55;;
83695;SDS011;73677;54.530;18.484;2024-03-08T01:12:43;38.00;;;14.73;;
83695;SDS011;73677;54.530;18.484;2024-03-08T01:15:12;34.15;;;14.23;;
83695;SDS011;73677;54.530;18.484;2024-03-08T01:17:41;33.20;;;14.88;;
83695;SDS011;73677;54.530;18.484;2024-03-08T01:22:40;29.60;;;13.07;;
83695;SDS011;73677;54.530;18.484;2024-03-08T01:25:08;33.22;;;13.55;;
83695;SDS011;73677;54.530;18.484;2024-03-08T01:27:37;33.55;;;14.68;;
83695;SDS011;73677;54.530;18.484;2024-03-08T01:30:07;36.40;;;13.15;;
83695;SDS011;73677;54.530;18.484;2024-03-08T01:32:37;30.13;;;12.77;;
83695;SDS011;73677;54.530;18.484;2024-03-08T01:35:06;33.00;;;13.45;;
83695;SDS011;73677;54.530;18.484;2024-03-08T01:37:36;30.38;;;13.27;;
83695;SDS011;73677;54.530;18.484;2024-03-08T01:40:06;32.35;;;12.77;;
83695;SDS011;73677;54.530;18.484;2024-03-08T01:42:36;28.40;;;11.57;;
83695;SDS011;73677;54.530;18.484;2024-03-08T01:45:07;29.27;;;11.63;;
83695;SDS011;73677;54.530;18.484;2024-03-08T01:47:36;29.95;;;12.30;;
83695;SDS011;73677;54.530;18.484;2024-03-08T01:50:06;35.70;;;14.73;;
83695;SDS011;73677;54.530;18.484;2024-03-08T01:52:35;32.13;;;12.40;;
83695;SDS011;73677;54.530;18.484;2024-03-08T01:55:04;29.02;;;13.43;;
83695;SDS011;73677;54.530;18.484;2024-03-08T01:57:35;29.48;;;12.30;;
83695;SDS011;73677;54.530;18.484;2024-03-08T02:02:38;30.38;;;12.05;;
83695;SDS011;73677;54.530;18.484;2024-03-08T02:05:10;27.42;;;12.13;;
83695;SDS011;73677;54.530;18.484;2024-03-08T02:07:40;28.98;;;12.00;;
83695;SDS011;73677;54.530;18.484;2024-03-08T02:10:10;29.27;;;11.60;;
83695;SDS011;73677;54.530;18.484;2024-03-08T02:12:39;25.60;;;11.10;;
83695;SDS011;73677;54.530;18.484;2024-03-08T02:15:09;24.75;;;10.43;;
83695;SDS011;73677;54.530;18.484;2024-03-08T02:17:38;23.60;;;11.18;;
83695;SDS011;73677;54.530;18.484;2024-03-08T02:20:07;32.22;;;12.65;;
83695;SDS011;73677;54.530;18.484;2024-03-08T02:22:39;29.27;;;12.25;;
83695;SDS011;73677;54.530;18.484;2024-03-08T02:25:08;23.17;;;10.88;;
83695;SDS011;73677;54.530;18.484;2024-03-08T02:27:37;24.70;;;11.63;;
83695;SDS011;73677;54.530;18.484;2024-03-08T02:30:06;23.92;;;9.35;;
83695;SDS011;73677;54.530;18.484;2024-03-08T02:35:04;25.50;;;11.70;;
83695;SDS011;73677;54.530;18.484;2024-03-08T02:37:33;26.00;;;10.70;;
83695;SDS011;73677;54.530;18.484;2024-03-08T02:40:03;27.75;;;10.25;;
83695;SDS011;73677;54.530;18.484;2024-03-08T02:42:33;23.35;;;10.75;;
83695;SDS011;73677;54.530;18.484;2024-03-08T02:45:01;21.58;;;10.50;;
83695;SDS011;73677;54.530;18.484;2024-03-08T02:47:32;18.88;;;9.45;;
83695;SDS011;73677;54.530;18.484;2024-03-08T02:50:02;19.55;;;9.70;;
83695;SDS011;73677;54.530;18.484;2024-03-08T02:52:31;23.20;;;10.27;;
83695;SDS011;73677;54.530;18.484;2024-03-08T02:55:00;25.65;;;10.18;;
83695;SDS011;73677;54.530;18.484;2024-03-08T02:57:30;21.80;;;9.10;;
83695;SDS011;73677;54.530;18.484;2024-03-08T02:59:58;25.23;;;9.70;;
83695;SDS011;73677;54.530;18.484;2024-03-08T03:02:27;27.75;;;9.93;;
83695;SDS011;73677;54.530;18.484;2024-03-08T03:04:56;20.63;;;8.65;;
83695;SDS011;73677;54.530;18.484;2024-03-08T03:07:25;26.33;;;10.85;;
83695;SDS011;73677;54.530;18.484;2024-03-08T03:09:54;19.42;;;8.85;;
83695;SDS011;73677;54.530;18.484;2024-03-08T03:12:23;24.38;;;10.88;;
83695;SDS011;73677;54.530;18.484;2024-03-08T03:14:53;19.60;;;8.82;;
83695;SDS011;73677;54.530;18.484;2024-03-08T03:17:21;17.13;;;9.18;;
83695;SDS011;73677;54.530;18.484;2024-03-08T03:19:51;18.02;;;8.30;;
83695;SDS011;73677;54.530;18.484;2024-03-08T03:22:20;19.50;;;8.30;;
83695;SDS011;73677;54.530;18.484;2024-03-08T03:24:48;18.65;;;8.88;;
83695;SDS011;73677;54.530;18.484;2024-03-08T03:27:18;20.65;;;9.05;;
83695;SDS011;73677;54.530;18.484;2024-03-08T03:29:47;20.02;;;8.68;;
83695;SDS011;73677;54.530;18.484;2024-03-08T03:32:18;18.15;;;8.75;;
83695;SDS011;73677;54.530;18.484;2024-03-08T03:34:46;18.63;;;8.20;;
83695;SDS011;73677;54.530;18.484;2024-03-08T03:37:15;28.58;;;10.60;;
83695;SDS011;73677;54.530;18.484;2024-03-08T03:39:45;22.15;;;10.63;;
83695;SDS011;73677;54.530;18.484;2024-03-08T03:42:16;23.92;;;10.57;;
83695;SDS011;73677;54.530;18.484;2024-03-08T03:44:45;18.73;;;8.98;;
83695;SDS011;73677;54.530;18.484;2024-03-08T03:47:15;19.45;;;10.32;;
83695;SDS011;73677;54.530;18.484;2024-03-08T03:49:45;17.15;;;8.77;;
83695;SDS011;73677;54.530;18.484;2024-03-08T03:52:14;23.60;;;9.75;;
83695;SDS011;73677;54.530;18.484;2024-03-08T03:54:42;12.40;;;7.18;;
83695;SDS011;73677;54.530;18.484;2024-03-08T03:57:11;18.17;;;9.20;;
83695;SDS011;73677;54.530;18.484;2024-03-08T03:59:40;17.73;;;8.35;;
83695;SDS011;73677;54.530;18.484;2024-03-08T04:02:09;20.35;;;9.18;;
83695;SDS011;73677;54.530;18.484;2024-03-08T04:04:37;22.73;;;8.23;;
83695;SDS011;73677;54.530;18.484;2024-03-08T04:07:07;15.43;;;7.95;;
83695;SDS011;73677;54.530;18.484;2024-03-08T04:09:37;19.05;;;8.13;;
83695;SDS011;73677;54.530;18.484;2024-03-08T04:12:06;13.65;;;7.25;;
83695;SDS011;73677;54.530;18.484;2024-03-08T04:14:38;17.58;;;7.97;;
83695;SDS011;73677;54.530;18.484;2024-03-08T04:17:09;15.93;;;7.22;;
83695;SDS011;73677;54.530;18.484;2024-03-08T04:19:38;19.25;;;8.68;;
83695;SDS011;73677;54.530;18.484;2024-03-08T04:22:08;16.65;;;9.00;;
83695;SDS011;73677;54.530;18.484;2024-03-08T04:24:36;22.98;;;9.00;;
83695;SDS011;73677;54.530;18.484;2024-03-08T04:27:07;24.27;;;8.35;;
83695;SDS011;73677;54.530;18.484;2024-03-08T04:29:36;19.17;;;9.48;;
83695;SDS011;73677;54.530;18.484;2024-03-08T04:32:05;25.33;;;9.23;;
83695;SDS011;73677;54.530;18.484;2024-03-08T04:34:35;21.02;;;9.10;;
83695;SDS011;73677;54.530;18.484;2024-03-08T04:37:04;20.05;;;8.35;;
83695;SDS011;73677;54.530;18.484;2024-03-08T04:39:33;22.73;;;9.57;;
83695;SDS011;73677;54.530;18.484;2024-03-08T04:42:02;27.13;;;10.40;;
83695;SDS011;73677;54.530;18.484;2024-03-08T04:44:33;24.90;;;11.20;;
83695;SDS011;73677;54.530;18.484;2024-03-08T04:47:02;30.00;;;12.15;;
83695;SDS011;73677;54.530;18.484;2024-03-08T04:49:32;31.60;;;12.20;;
83695;SDS011;73677;54.530;18.484;2024-03-08T04:52:01;39.25;;;14.50;;
83695;SDS011;73677;54.530;18.484;2024-03-08T04:54:30;32.80;;;13.48;;
83695;SDS011;73677;54.530;18.484;2024-03-08T04:57:01;34.10;;;12.63;;
83695;SDS011;73677;54.530;18.484;2024-03-08T04:59:35;27.67;;;12.25;;
83695;SDS011;73677;54.530;18.484;2024-03-08T05:02:03;23.05;;;10.95;;
83695;SDS011;73677;54.530;18.484;2024-03-08T05:04:33;26.48;;;11.00;;
83695;SDS011;73677;54.530;18.484;2024-03-08T05:07:03;24.23;;;10.75;;
83695;SDS011;73677;54.530;18.484;2024-03-08T05:09:31;20.02;;;10.77;;
83695;SDS011;73677;54.530;18.484;2024-03-08T05:12:01;22.52;;;11.50;;
83695;SDS011;73677;54.530;18.484;2024-03-08T05:14:30;20.67;;;10.55;;
83695;SDS011;73677;54.530;18.484;2024-03-08T05:16:59;26.90;;;10.25;;
83695;SDS011;73677;54.530;18.484;2024-03-08T05:19:27;25.83;;;10.52;;
83695;SDS011;73677;54.530;18.484;2024-03-08T05:22:01;22.65;;;10.07;;
83695;SDS011;73677;54.530;18.484;2024-03-08T05:24:29;23.88;;;11.10;;
83695;SDS011;73677;54.530;18.484;2024-03-08T05:26:58;20.65;;;9.50;;
83695;SDS011;73677;54.530;18.484;2024-03-08T05:29:29;19.65;;;9.77;;
83695;SDS011;73677;54.530;18.484;2024-03-08T05:31:58;19.85;;;8.45;;
83695;SDS011;73677;54.530;18.484;2024-03-08T05:34:26;19.95;;;8.80;;
83695;SDS011;73677;54.530;18.484;2024-03-08T05:36:55;15.70;;;8.13;;
83695;SDS011;73677;54.530;18.484;2024-03-08T05:39:25;18.33;;;7.85;;
83695;SDS011;73677;54.530;18.484;2024-03-08T05:41:53;17.35;;;8.80;;
83695;SDS011;73677;54.530;18.484;2024-03-08T05:44:23;17.35;;;8.43;;
83695;SDS011;73677;54.530;18.484;2024-03-08T05:46:53;16.42;;;7.95;;
83695;SDS011;73677;54.530;18.484;2024-03-08T05:49:22;21.73;;;9.27;;
83695;SDS011;73677;54.530;18.484;2024-03-08T05:51:52;16.30;;;7.85;;
83695;SDS011;73677;54.530;18.484;2024-03-08T05:54:21;18.02;;;7.50;;
83695;SDS011;73677;54.530;18.484;2024-03-08T05:56:51;17.50;;;8.55;;
83695;SDS011;73677;54.530;18.484;2024-03-08T05:59:21;26.65;;;10.75;;
83695;SDS011;73677;54.530;18.484;2024-03-08T06:01:50;48.33;;;16.95;;
83695;SDS011;73677;54.530;18.484;2024-03-08T06:04:20;65.55;;;19.60;;
83695;SDS011;73677;54.530;18.484;2024-03-08T06:06:49;36.85;;;14.27;;
83695;SDS011;73677;54.530;18.484;2024-03-08T06:09:18;22.38;;;9.23;;
83695;SDS011;73677;54.530;18.484;2024-03-08T06:11:51;27.73;;;9.88;;
83695;SDS011;73677;54.530;18.484;2024-03-08T06:14:21;21.60;;;8.63;;
83695;SDS011;73677;54.530;18.484;2024-03-08T06:16:50;27.08;;;11.73;;
83695;SDS011;73677;54.530;18.484;2024-03-08T06:19:20;18.00;;;8.80;;
83695;SDS011;73677;54.530;18.484;2024-03-08T06:21:50;21.77;;;10.45;;
83695;SDS011;73677;54.530;18.484;2024-03-08T06:24:18;22.98;;;9.60;;
83695;SDS011;73677;54.530;18.484;2024-03-08T06:26:46;18.17;;;8.48;;
83695;SDS011;73677;54.530;18.484;2024-03-08T06:29:15;17.98;;;9.45;;
83695;SDS011;73677;54.530;18.484;2024-03-08T06:31:44;25.20;;;9.45;;
83695;SDS011;73677;54.530;18.484;2024-03-08T06:34:12;22.83;;;11.75;;
83695;SDS011;73677;54.530;18.484;2024-03-08T06:36:44;18.25;;;9.38;;
83695;SDS011;73677;54.530;18.484;2024-03-08T06:39:12;17.38;;;8.98;;
83695;SDS011;73677;54.530;18.484;2024-03-08T06:41:41;23.95;;;11.13;;
83695;SDS011;73677;54.530;18.484;2024-03-08T06:49:07;16.95;;;8.48;;
83695;SDS011;73677;54.530;18.484;2024-03-08T06:51:37;13.55;;;8.65;;
83695;SDS011;73677;54.530;18.484;2024-03-08T06:56:37;16.25;;;10.43;;
83695;SDS011;73677;54.530;18.484;2024-03-08T06:59:06;9.38;;;4.93;;
83695;SDS011;73677;54.530;18.484;2024-03-08T07:01:40;7.30;;;3.85;;
83695;SDS011;73677;54.530;18.484;2024-03-08T07:04:08;8.43;;;3.58;;
83695;SDS011;73677;54.530;18.484;2024-03-08T07:06:39;11.15;;;2.90;;
83695;SDS011;73677;54.530;18.484;2024-03-08T07:09:09;4.80;;;2.65;;
83695;SDS011;73677;54.530;18.484;2024-03-08T07:11:39;4.78;;;2.75;;
83695;SDS011;73677;54.530;18.484;2024-03-08T07:14:11;3.63;;;2.15;;
83695;SDS011;73677;54.530;18.484;2024-03-08T07:16:42;3.88;;;2.38;;
83695;SDS011;73677;54.530;18.484;2024-03-08T07:19:11;6.57;;;2.90;;
83695;SDS011;73677;54.530;18.484;2024-03-08T07:21:40;5.35;;;2.55;;
83695;SDS011;73677;54.530;18.484;2024-03-08T07:24:09;8.73;;;2.45;;
83695;SDS011;73677;54.530;18.484;2024-03-08T07:26:54;5.82;;;3.10;;
83695;SDS011;73677;54.530;18.484;2024-03-08T07:29:23;9.07;;;4.93;;
83695;SDS011;73677;54.530;18.484;2024-03-08T07:31:51;8.45;;;4.78;;
83695;SDS011;73677;54.530;18.484;2024-03-08T07:34:29;4.88;;;3.17;;
83695;SDS011;73677;54.530;18.484;2024-03-08T07:36:59;4.18;;;2.40;;
83695;SDS011;73677;54.530;18.484;2024-03-08T07:39:29;7.40;;;2.65;;
83695;SDS011;73677;54.530;18.484;2024-03-08T07:41:57;7.78;;;2.70;;
83695;SDS011;73677;54.530;18.484;2024-03-08T07:44:26;4.82;;;2.50;;
83695;SDS011;73677;54.530;18.484;2024-03-08T07:46:55;6.05;;;2.70;;
83695;SDS011;73677;54.530;18.484;2024-03-08T07:49:24;5.60;;;2.65;;
83695;SDS011;73677;54.530;18.484;2024-03-08T07:51:52;4.88;;;3.00;;
83695;SDS011;73677;54.530;18.484;2024-03-08T07:54:21;11.07;;;3.30;;
83695;SDS011;73677;54.530;18.484;2024-03-08T07:56:51;6.10;;;3.50;;
83695;SDS011;73677;54.530;18.484;2024-03-08T07:59:20;9.02;;;4.18;;
83695;SDS011;73677;54.530;18.484;2024-03-08T08:01:49;6.47;;;3.90;;
83695;SDS011;73677;54.530;18.484;2024-03-08T08:04:17;7.65;;;3.67;;
83695;SDS011;73677;54.530;18.484;2024-03-08T08:06:51;7.35;;;3.75;;
83695;SDS011;73677;54.530;18.484;2024-03-08T08:09:21;6.63;;;3.45;;
83695;SDS011;73677;54.530;18.484;2024-03-08T08:12:03;9.02;;;3.95;;
83695;SDS011;73677;54.530;18.484;2024-03-08T08:14:32;5.32;;;3.47;;
83695;SDS011;73677;54.530;18.484;2024-03-08T08:17:00;7.50;;;3.55;;
83695;SDS011;73677;54.530;18.484;2024-03-08T08:19:31;9.95;;;4.80;;
83695;SDS011;73677;54.530;18.484;2024-03-08T08:22:00;11.63;;;4.50;;
83695;SDS011;73677;54.530;18.484;2024-03-08T08:24:29;7.70;;;3.70;;
83695;SDS011;73677;54.530;18.484;2024-03-08T08:26:58;8.52;;;4.82;;
83695;SDS011;73677;54.530;18.484;2024-03-08T08:29:27;8.88;;;5.28;;
83695;SDS011;73677;54.530;18.484;2024-03-08T08:31:57;12.85;;;5.82;;
83695;SDS011;73677;54.530;18.484;2024-03-08T08:34:27;10.98;;;5.63;;
83695;SDS011;73677;54.530;18.484;2024-03-08T08:36:58;13.32;;;6.28;;
83695;SDS011;73677;54.530;18.484;2024-03-08T08:39:27;10.90;;;6.28;;
83695;SDS011;73677;54.530;18.484;2024-03-08T08:41:56;17.85;;;7.28;;
83695;SDS011;73677;54.530;18.484;2024-03-08T08:44:24;15.98;;;6.70;;
83695;SDS011;73677;54.530;18.484;2024-03-08T08:46:56;13.55;;;7.65;;
83695;SDS011;73677;54.530;18.484;2024-03-08T08:49:35;15.77;;;7.18;;
83695;SDS011;73677;54.530;18.484;2024-03-08T08:52:05;16.40;;;7.45;;
83695;SDS011;73677;54.530;18.484;2024-03-08T08:54:42;17.67;;;8.27;;
83695;SDS011;73677;54.530;18.484;2024-03-08T08:57:16;14.35;;;7.68;;
83695;SDS011;73677;54.530;18.484;2024-03-08T08:59:44;11.40;;;7.60;;
83695;SDS011;73677;54.530;18.484;2024-03-08T09:02:15;13.32;;;8.27;;
83695;SDS011;73677;54.530;18.484;2024-03-08T09:04:46;13.15;;;8.23;;
83695;SDS011;73677;54.530;18.484;2024-03-08T09:07:16;19.80;;;9.77;;
83695;SDS011;73677;54.530;18.484;2024-03-08T09:09:45;21.90;;;9.35;;
83695;SDS011;73677;54.530;18.484;2024-03-08T09:12:14;15.13;;;9.60;;
83695;SDS011;73677;54.530;18.484;2024-03-08T09:14:42;17.50;;;9.27;;
83695;SDS011;73677;54.530;18.484;2024-03-08T09:17:11;15.65;;;8.55;;
83695;SDS011;73677;54.530;18.484;2024-03-08T09:19:45;13.52;;;8.50;;
83695;SDS011;73677;54.530;18.484;2024-03-08T09:22:14;21.90;;;9.95;;
83695;SDS011;73677;54.530;18.484;2024-03-08T09:24:43;16.60;;;8.60;;
83695;SDS011;73677;54.530;18.484;2024-03-08T09:27:13;14.93;;;8.13;;
83695;SDS011;73677;54.530;18.484;2024-03-08T09:29:41;15.07;;;9.13;;
83695;SDS011;73677;54.530;18.484;2024-03-08T09:32:11;13.45;;;8.27;;
83695;SDS011;73677;54.530;18.484;2024-03-08T09:34:39;15.57;;;8.77;;
83695;SDS011;73677;54.530;18.484;2024-03-08T09:37:09;19.42;;;9.30;;
83695;SDS011;73677;54.530;18.484;2024-03-08T09:39:38;17.15;;;10.20;;
83695;SDS011;73677;54.530;18.484;2024-03-08T09:42:06;20.35;;;9.60;;
83695;SDS011;73677;54.530;18.484;2024-03-08T09:44:35;21.75;;;11.32;;
83695;SDS011;73677;54.530;18.484;2024-03-08T09:47:06;19.20;;;9.32;;
83695;SDS011;73677;54.530;18.484;2024-03-08T09:49:35;15.88;;;8.85;;
83695;SDS011;73677;54.530;18.484;2024-03-08T09:52:05;16.83;;;9.95;;
83695;SDS011;73677;54.530;18.484;2024-03-08T09:57:04;17.30;;;9.50;;
83695;SDS011;73677;54.530;18.484;2024-03-08T09:59:35;18.25;;;9.95;;
83695;SDS011;73677;54.530;18.484;2024-03-08T10:02:15;12.75;;;8.82;;
83695;SDS011;73677;54.530;18.484;2024-03-08T10:04:45;14.35;;;8.45;;
83695;SDS011;73677;54.530;18.484;2024-03-08T10:07:17;19.42;;;8.85;;
83695;SDS011;73677;54.530;18.484;2024-03-08T10:09:47;22.83;;;9.57;;
83695;SDS011;73677;54.530;18.484;2024-03-08T10:12:17;14.10;;;7.97;;
83695;SDS011;73677;54.530;18.484;2024-03-08T10:14:46;15.75;;;8.07;;
83695;SDS011;73677;54.530;18.484;2024-03-08T10:17:15;13.90;;;7.43;;
83695;SDS011;73677;54.530;18.484;2024-03-08T10:19:50;16.20;;;7.65;;
83695;SDS011;73677;54.530;18.484;2024-03-08T10:22:20;14.65;;;8.00;;
83695;SDS011;73677;54.530;18.484;2024-03-08T10:24:50;13.48;;;6.72;;
83695;SDS011;73677;54.530;18.484;2024-03-08T10:27:19;10.77;;;6.38;;
83695;SDS011;73677;54.530;18.484;2024-03-08T10:29:48;13.20;;;7.00;;
83695;SDS011;73677;54.530;18.484;2024-03-08T10:32:19;14.88;;;8.80;;
83695;SDS011;73677;54.530;18.484;2024-03-08T10:34:47;16.77;;;6.88;;
83695;SDS011;73677;54.530;18.484;2024-03-08T10:37:17;14.02;;;7.03;;
83695;SDS011;73677;54.530;18.484;2024-03-08T10:39:55;17.20;;;7.88;;
83695;SDS011;73677;54.530;18.484;2024-03-08T10:42:39;13.45;;;6.07;;
83695;SDS011;73677;54.530;18.484;2024-03-08T10:45:14;15.05;;;6.63;;
83695;SDS011;73677;54.530;18.484;2024-03-08T10:47:49;14.70;;;6.82;;
83695;SDS011;73677;54.530;18.484;2024-03-08T10:50:25;13.32;;;7.55;;
83695;SDS011;73677;54.530;18.484;2024-03-08T10:52:55;13.30;;;6.32;;
83695;SDS011;73677;54.530;18.484;2024-03-08T10:55:29;11.52;;;6.30;;
83695;SDS011;73677;54.530;18.484;2024-03-08T10:58:01;10.85;;;6.45;;
83695;SDS011;73677;54.530;18.484;2024-03-08T11:00:30;11.70;;;6.75;;
83695;SDS011;73677;54.530;18.484;2024-03-08T11:02:59;13.77;;;6.88;;
83695;SDS011;73677;54.530;18.484;2024-03-08T11:05:31;12.45;;;6.50;;
83695;SDS011;73677;54.530;18.484;2024-03-08T11:08:03;14.07;;;7.47;;
83695;SDS011;73677;54.530;18.484;2024-03-08T11:10:35;15.10;;;6.15;;
83695;SDS011;73677;54.530;18.484;2024-03-08T11:13:32;15.05;;;6.57;;
83695;SDS011;73677;54.530;18.484;2024-03-08T11:16:01;11.43;;;6.45;;
83695;SDS011;73677;54.530;18.484;2024-03-08T11:18:32;10.45;;;6.28;;
83695;SDS011;73677;54.530;18.484;2024-03-08T11:21:02;12.98;;;6.50;;
83695;SDS011;73677;54.530;18.484;2024-03-08T11:23:34;11.40;;;6.55;;
83695;SDS011;73677;54.530;18.484;2024-03-08T11:26:04;13.60;;;7.10;;
83695;SDS011;73677;54.530;18.484;2024-03-08T11:28:46;9.82;;;6.35;;
83695;SDS011;73677;54.530;18.484;2024-03-08T11:31:24;11.18;;;6.28;;
83695;SDS011;73677;54.530;18.484;2024-03-08T11:33:55;11.30;;;7.05;;
83695;SDS011;73677;54.530;18.484;2024-03-08T11:36:24;12.20;;;6.80;;
83695;SDS011;73677;54.530;18.484;2024-03-08T11:38:53;11.88;;;6.85;;
83695;SDS011;73677;54.530;18.484;2024-03-08T11:44:01;15.88;;;6.97;;
83695;SDS011;73677;54.530;18.484;2024-03-08T11:46:33;15.55;;;6.57;;
83695;SDS011;73677;54.530;18.484;2024-03-08T11:49:02;14.15;;;7.53;;
83695;SDS011;73677;54.530;18.484;2024-03-08T11:51:32;15.30;;;7.88;;
83695;SDS011;73677;54.530;18.484;2024-03-08T11:54:02;11.15;;;7.25;;
83695;SDS011;73677;54.530;18.484;2024-03-08T11:56:34;12.77;;;7.55;;
83695;SDS011;73677;54.530;18.484;2024-03-08T11:59:03;12.10;;;7.07;;
83695;SDS011;73677;54.530;18.484;2024-03-08T12:01:31;13.88;;;6.75;;
83695;SDS011;73677;54.530;18.484;2024-03-08T12:04:00;12.25;;;7.07;;
83695;SDS011;73677;54.530;18.484;2024-03-08T12:06:36;13.82;;;7.53;;
83695;SDS011;73677;54.530;18.484;2024-03-08T12:09:08;12.27;;;7.22;;
83695;SDS011;73677;54.530;18.484;2024-03-08T12:11:39;13.15;;;6.03;;
83695;SDS011;73677;54.530;18.484;2024-03-08T12:14:08;10.90;;;6.95;;
83695;SDS011;73677;54.530;18.484;2024-03-08T12:19:06;11.80;;;6.43;;
83695;SDS011;73677;54.530;18.484;2024-03-08T12:21:36;9.82;;;6.70;;
83695;SDS011;73677;54.530;18.484;2024-03-08T12:24:05;11.80;;;6.78;;
83695;SDS011;73677;54.530;18.484;2024-03-08T12:26:36;22.83;;;14.57;;
83695;SDS011;73677;54.530;18.484;2024-03-08T12:29:22;13.82;;;8.43;;
83695;SDS011;73677;54.530;18.484;2024-03-08T12:31:54;30.90;;;21.63;;
83695;SDS011;73677;54.530;18.484;2024-03-08T12:34:26;10.32;;;6.80;;
83695;SDS011;73677;54.530;18.484;2024-03-08T12:36:55;18.02;;;12.20;;
83695;SDS011;73677;54.530;18.484;2024-03-08T12:41:56;32.83;;;10.15;;
83695;SDS011;73677;54.530;18.484;2024-03-08T12:44:27;41.63;;;12.43;;
83695;SDS011;73677;54.530;18.484;2024-03-08T12:46:56;12.15;;;6.32;;
83695;SDS011;73677;54.530;18.484;2024-03-08T12:49:28;12.88;;;6.47;;
83695;SDS011;73677;54.530;18.484;2024-03-08T12:51:57;9.95;;;5.57;;
83695;SDS011;73677;54.530;18.484;2024-03-08T12:54:26;103.32;;;23.20;;
83695;SDS011;73677;54.530;18.484;2024-03-08T12:56:56;10.52;;;4.97;;
83695;SDS011;73677;54.530;18.484;2024-03-08T12:59:25;9.98;;;4.88;;
83695;SDS011;73677;54.530;18.484;2024-03-08T13:01:54;9.85;;;5.65;;
83695;SDS011;73677;54.530;18.484;2024-03-08T13:04:25;10.13;;;5.55;;
83695;SDS011;73677;54.530;18.484;2024-03-08T13:06:54;7.45;;;4.72;;
83695;SDS011;73677;54.530;18.484;2024-03-08T13:09:22;19.60;;;8.15;;
83695;SDS011;73677;54.530;18.484;2024-03-08T13:11:55;18.58;;;6.40;;
83695;SDS011;73677;54.530;18.484;2024-03-08T13:14:26;10.75;;;5.38;;
83695;SDS011;73677;54.530;18.484;2024-03-08T13:16:57;11.27;;;4.90;;
83695;SDS011;73677;54.530;18.484;2024-03-08T13:19:26;7.85;;;3.63;;
83695;SDS011;73677;54.530;18.484;2024-03-08T13:21:55;6.82;;;3.78;;
83695;SDS011;73677;54.530;18.484;2024-03-08T13:24:24;8.07;;;3.70;;
83695;SDS011;73677;54.530;18.484;2024-03-08T13:26:52;7.90;;;3.80;;
83695;SDS011;73677;54.530;18.484;2024-03-08T13:29:23;6.40;;;3.33;;
83695;SDS011;73677;54.530;18.484;2024-03-08T13:31:51;9.15;;;4.50;;
83695;SDS011;73677;54.530;18.484;2024-03-08T13:34:23;6.95;;;3.30;;
83695;SDS011;73677;54.530;18.484;2024-03-08T13:36:56;10.05;;;4.20;;
83695;SDS011;73677;54.530;18.484;2024-03-08T13:39:28;10.18;;;4.32;;
83695;SDS011;73677;54.530;18.484;2024-03-08T13:42:01;6.55;;;3.53;;
83695;SDS011;73677;54.530;18.484;2024-03-08T13:44:33;27.15;;;7.38;;
83695;SDS011;73677;54.530;18.484;2024-03-08T13:47:02;7.07;;;3.08;;
83695;SDS011;73677;54.530;18.484;2024-03-08T13:49:32;9.77;;;3.55;;
83695;SDS011;73677;54.530;18.484;2024-03-08T13:52:01;5.68;;;3.38;;
83695;SDS011;73677;54.530;18.484;2024-03-08T13:54:31;7.82;;;3.75;;
83695;SDS011;73677;54.530;18.484;2024-03-08T13:56:59;13.85;;;5.15;;
83695;SDS011;73677;54.530;18.484;2024-03-08T13:59:31;13.32;;;4.25;;
83695;SDS011;73677;54.530;18.484;2024-03-08T14:02:01;22.05;;;6.05;;
83695;SDS011;73677;54.530;18.484;2024-03-08T14:04:30;7.45;;;3.45;;
83695;SDS011;73677;54.530;18.484;2024-03-08T14:06:59;8.20;;;4.20;;
83695;SDS011;73677;54.530;18.484;2024-03-08T14:09:31;21.23;;;10.93;;
83695;SDS011;73677;54.530;18.484;2024-03-08T14:12:04;6.88;;;3.30;;
83695;SDS011;73677;54.530;18.484;2024-03-08T14:14:34;6.30;;;3.97;;
83695;SDS011;73677;54.530;18.484;2024-03-08T14:17:04;46.72;;;12.00;;
83695;SDS011;73677;54.530;18.484;2024-03-08T14:19:34;7.38;;;4.00;;
83695;SDS011;73677;54.530;18.484;2024-03-08T14:22:03;14.00;;;4.95;;
83695;SDS011;73677;54.530;18.484;2024-03-08T14:24:33;8.93;;;3.97;;
83695;SDS011;73677;54.530;18.484;2024-03-08T14:27:02;21.92;;;6.35;;
83695;SDS011;73677;54.530;18.484;2024-03-08T14:29:31;7.40;;;3.35;;
83695;SDS011;73677;54.530;18.484;2024-03-08T14:31:59;7.85;;;3.25;;
83695;SDS011;73677;54.530;18.484;2024-03-08T14:34:31;7.28;;;3.75;;
83695;SDS011;73677;54.530;18.484;2024-03-08T14:37:00;9.77;;;3.80;;
83695;SDS011;73677;54.530;18.484;2024-03-08T14:39:33;8.10;;;4.38;;
83695;SDS011;73677;54.530;18.484;2024-03-08T14:42:01;13.02;;;4.55;;
83695;SDS011;73677;54.530;18.484;2024-03-08T14:44:30;9.20;;;5.10;;
83695;SDS011;73677;54.530;18.484;2024-03-08T14:47:00;11.73;;;6.15;;
83695;SDS011;73677;54.530;18.484;2024-03-08T14:49:34;12.63;;;4.45;;
83695;SDS011;73677;54.530;18.484;2024-03-08T14:52:05;9.13;;;4.55;;
83695;SDS011;73677;54.530;18.484;2024-03-08T14:54:54;7.30;;;4.20;;
83695;SDS011;73677;54.530;18.484;2024-03-08T14:57:25;10.95;;;4.40;;
83695;SDS011;73677;54.530;18.484;2024-03-08T14:59:53;6.60;;;4.45;;
83695;SDS011;73677;54.530;18.484;2024-03-08T15:02:22;13.82;;;6.13;;
83695;SDS011;73677;54.530;18.484;2024-03-08T15:04:52;14.25;;;5.53;;
83695;SDS011;73677;54.530;18.484;2024-03-08T15:07:24;9.98;;;4.70;;
83695;SDS011;73677;54.530;18.484;2024-03-08T15:09:54;7.90;;;3.90;;